RTA weather

Rotuma Airport
Rotuma, Rotuma, Fiji

Public forecast

Using degrees Celsius for public forecast. Weather courtesy of forecast.io.

METAR (pilot weather report)

Report is more than 6 hours old.

Retrieved 2019/09/16 08:00 UTC (15 hours ago):

NFNR 160800Z AUTO 15004KT //// 27/25 Q1015

TAF (pilot weather forecast)

Closest forecast is Pointe Vele Airport, 304.5 nm (563.9 km) ESE. Retrieved 2019/09/16 18:00 UTC (5 hours ago):

TAF NLWF 161700Z 1618/1718 11008KT 9999 SCT020 BKN060 TEMPO 1618/1718 4000 SHRA BKN014 SCT020TCU PROB40 TEMPO 1622/1705 12015G25KT 2000 SHRA BKN010 SCT020CB BECMG 1712/1714 12015G25KT